Skip Navigation Links
NOAA logo - Click to go to the NOAA homepage
NOAA's National Weather Service
Alaska Aviation Weather Unit
  NWS logo - Click to go to the NWS homepage
Left Navbar Graphic     10 AKDT = 18 GMT

   
NOAA is celebrating 200 years of science, service, and stewardship. Visit the NOAA 200th celebration Web site to learn more.
USA.gov is the U.S. Government's official Web portal to all Federal, state and local government Web resources and services.
Facebook
NWS on Facebook

Important Change Regarding the AAWU Web Presence

 

Over the last several months, the AAWU has been working to navigate its webpages to a nationally supported server. Security, as well as other needs, have necessitated the change.  We have been given an extension for the site changeover while we diligently work at addressing feedback received. As of July 14, 2017, aawu.arh.noaa.gov will be discontinued. The new AAWU web address is weather.gov/aawu. It is now live and will run in-parallel with the old site until it is discontinued on July 14, 2017. Please continue to send any feedback or questions regarding the new webpages to nws.ar.aawu.webauthors@noaa.gov.  Thank you for your patience during this time of transition.
AAWU Home :: Display TAF Add Bookmark
TAF PACD 261722Z 2618/2718  01011KT P6SM SCT035 BKN050 OVC070
     FM270800 35012KT P6SM BKN030=

2702
FTAK31 PANC 261722
TAFASN
TAF

METAR PACD 261253Z AUTO 00000KT 10SM SCT037 BKN047 OVC070 02/02 A2966= METAR PACD 261353Z AUTO 00000KT 10SM OVC037 03/03 A2966= METAR PACD 261453Z AUTO 00000KT 10SM -RA FEW034 BKN055 OVC070 04/03 A2966= METAR PACD 261553Z 00000KT 10SM -RA BKN038 OVC047 06/05 A2966= METAR PACD 261653Z 00000KT 10SM FEW011 BKN055 OVC070 06/04 A2968= METAR PACD 261753Z 34004KT 10SM BKN080 OVC095 06/04 A2967=
 Alaska TAF Map

NOAA's National Weather Service
Alaska Aviation Weather Unit
6930 Sand Lake Road
Anchorage, AK 99502-1845
Disclaimer
Credits
Glossary
Privacy Policy
About Us
Career Opportunities
Contact AAWU Internet Services Site last modified: April, 17th 2012